sensor_id;sensor_type;location;lat;lon;timestamp;pressure;altitude;pressure_sealevel;temperature;humidity
31357;BME280;60001;48.404;11.738;2023-04-26T00:01:00;96193.16;;;7.53;79.71
31357;BME280;60001;48.404;11.738;2023-04-26T00:02:34;96192.78;;;7.61;79.18
31357;BME280;60001;48.404;11.738;2023-04-26T00:04:07;96194.06;;;7.59;80.31
31357;BME280;60001;48.404;11.738;2023-04-26T00:05:39;96193.56;;;7.45;80.16
31357;BME280;60001;48.404;11.738;2023-04-26T00:07:12;96196.13;;;7.57;79.95
31357;BME280;60001;48.404;11.738;2023-04-26T00:08:43;96199.41;;;7.64;79.91
31357;BME280;60001;48.404;11.738;2023-04-26T00:10:14;96174.22;;;7.51;79.54
31357;BME280;60001;48.404;11.738;2023-04-26T00:11:46;96198.06;;;7.61;79.31
31357;BME280;60001;48.404;11.738;2023-04-26T00:13:18;96179.69;;;7.50;79.72
31357;BME280;60001;48.404;11.738;2023-04-26T00:14:50;96196.31;;;7.67;79.84
31357;BME280;60001;48.404;11.738;2023-04-26T00:16:21;96176.38;;;7.54;80.10
31357;BME280;60001;48.404;11.738;2023-04-26T00:17:52;96181.38;;;7.56;80.08
31357;BME280;60001;48.404;11.738;2023-04-26T00:19:25;96174.88;;;7.58;79.65
31357;BME280;60001;48.404;11.738;2023-04-26T00:20:57;96189.28;;;7.56;79.84
31357;BME280;60001;48.404;11.738;2023-04-26T00:22:28;96164.31;;;7.41;80.19
31357;BME280;60001;48.404;11.738;2023-04-26T00:24:00;96196.03;;;7.52;79.46
31357;BME280;60001;48.404;11.738;2023-04-26T00:25:32;96203.91;;;7.23;81.26
31357;BME280;60001;48.404;11.738;2023-04-26T00:27:04;96203.72;;;7.41;81.07
31357;BME280;60001;48.404;11.738;2023-04-26T00:28:39;96200.81;;;7.55;80.88
31357;BME280;60001;48.404;11.738;2023-04-26T00:30:12;96199.53;;;7.57;80.80
31357;BME280;60001;48.404;11.738;2023-04-26T00:31:44;96205.03;;;7.56;80.57
31357;BME280;60001;48.404;11.738;2023-04-26T00:33:14;96207.41;;;7.57;80.64
31357;BME280;60001;48.404;11.738;2023-04-26T00:34:47;96208.81;;;7.60;80.83
31357;BME280;60001;48.404;11.738;2023-04-26T00:36:18;96198.84;;;7.62;80.88
31357;BME280;60001;48.404;11.738;2023-04-26T00:37:50;96194.38;;;7.62;80.37
31357;BME280;60001;48.404;11.738;2023-04-26T00:39:22;96190.50;;;7.65;80.24
31357;BME280;60001;48.404;11.738;2023-04-26T00:40:54;96173.34;;;7.46;80.53
31357;BME280;60001;48.404;11.738;2023-04-26T00:42:26;96188.47;;;7.55;80.54
31357;BME280;60001;48.404;11.738;2023-04-26T00:43:58;96189.91;;;7.63;80.46
31357;BME280;60001;48.404;11.738;2023-04-26T00:45:30;96181.50;;;7.61;80.88
31357;BME280;60001;48.404;11.738;2023-04-26T00:47:02;96177.81;;;7.62;80.47
31357;BME280;60001;48.404;11.738;2023-04-26T00:48:35;96182.03;;;7.63;80.09
31357;BME280;60001;48.404;11.738;2023-04-26T00:50:08;96189.13;;;7.62;79.90
31357;BME280;60001;48.404;11.738;2023-04-26T00:51:40;96195.69;;;7.48;80.51
31357;BME280;60001;48.404;11.738;2023-04-26T00:53:13;96176.88;;;7.39;80.41
31357;BME280;60001;48.404;11.738;2023-04-26T00:54:47;96193.91;;;7.37;80.03
31357;BME280;60001;48.404;11.738;2023-04-26T00:56:20;96196.34;;;7.27;80.03
31357;BME280;60001;48.404;11.738;2023-04-26T00:57:53;96198.72;;;7.28;80.22
31357;BME280;60001;48.404;11.738;2023-04-26T00:59:26;96201.47;;;7.33;80.69
31357;BME280;60001;48.404;11.738;2023-04-26T01:00:57;96202.47;;;7.44;80.14
31357;BME280;60001;48.404;11.738;2023-04-26T01:02:29;96204.63;;;7.47;79.81
31357;BME280;60001;48.404;11.738;2023-04-26T01:04:00;96207.66;;;7.56;79.74
31357;BME280;60001;48.404;11.738;2023-04-26T01:05:34;96206.56;;;7.52;80.99
31357;BME280;60001;48.404;11.738;2023-04-26T01:07:06;96201.75;;;7.49;81.17
31357;BME280;60001;48.404;11.738;2023-04-26T01:08:39;96194.13;;;7.35;81.10
31357;BME280;60001;48.404;11.738;2023-04-26T01:10:11;96198.81;;;7.45;81.41
31357;BME280;60001;48.404;11.738;2023-04-26T01:11:43;96200.28;;;7.41;81.43
31357;BME280;60001;48.404;11.738;2023-04-26T01:13:15;96195.59;;;7.43;81.07
31357;BME280;60001;48.404;11.738;2023-04-26T01:14:46;96188.09;;;7.35;81.01
31357;BME280;60001;48.404;11.738;2023-04-26T01:16:18;96204.38;;;7.49;81.01
31357;BME280;60001;48.404;11.738;2023-04-26T01:17:53;96210.94;;;7.34;80.27
31357;BME280;60001;48.404;11.738;2023-04-26T01:19:25;96216.69;;;7.08;81.90
31357;BME280;60001;48.404;11.738;2023-04-26T01:20:58;96208.53;;;7.33;81.81
31357;BME280;60001;48.404;11.738;2023-04-26T01:22:33;96188.47;;;7.15;81.96
31357;BME280;60001;48.404;11.738;2023-04-26T01:24:05;96216.06;;;7.41;82.08
31357;BME280;60001;48.404;11.738;2023-04-26T01:25:37;96209.09;;;7.35;81.33
31357;BME280;60001;48.404;11.738;2023-04-26T01:27:09;96194.94;;;7.36;80.28
31357;BME280;60001;48.404;11.738;2023-04-26T01:28:41;96206.22;;;7.36;81.17
31357;BME280;60001;48.404;11.738;2023-04-26T01:30:12;96201.94;;;7.30;81.10
31357;BME280;60001;48.404;11.738;2023-04-26T01:31:44;96211.94;;;7.45;80.79
31357;BME280;60001;48.404;11.738;2023-04-26T01:33:16;96198.47;;;7.41;80.96
31357;BME280;60001;48.404;11.738;2023-04-26T01:34:47;96212.63;;;7.40;82.23
31357;BME280;60001;48.404;11.738;2023-04-26T01:36:18;96213.19;;;7.42;81.60
31357;BME280;60001;48.404;11.738;2023-04-26T01:37:51;96203.72;;;7.41;81.66
31357;BME280;60001;48.404;11.738;2023-04-26T01:39:23;96205.78;;;7.39;82.38
31357;BME280;60001;48.404;11.738;2023-04-26T01:40:53;96201.47;;;7.33;81.84
31357;BME280;60001;48.404;11.738;2023-04-26T01:42:25;96186.19;;;7.30;81.67
31357;BME280;60001;48.404;11.738;2023-04-26T01:43:57;96204.13;;;7.50;81.85
31357;BME280;60001;48.404;11.738;2023-04-26T01:45:28;96205.53;;;7.41;82.10
31357;BME280;60001;48.404;11.738;2023-04-26T01:47:00;96206.91;;;7.43;81.35
31357;BME280;60001;48.404;11.738;2023-04-26T01:48:32;96210.25;;;7.27;81.67
31357;BME280;60001;48.404;11.738;2023-04-26T01:50:03;96214.22;;;7.41;81.49
31357;BME280;60001;48.404;11.738;2023-04-26T01:51:35;96206.09;;;7.43;81.09
31357;BME280;60001;48.404;11.738;2023-04-26T01:53:08;96215.25;;;7.40;81.33
31357;BME280;60001;48.404;11.738;2023-04-26T01:54:40;96201.84;;;7.25;81.34
31357;BME280;60001;48.404;11.738;2023-04-26T01:56:12;96216.75;;;7.36;81.61
31357;BME280;60001;48.404;11.738;2023-04-26T01:57:43;96225.28;;;7.43;81.04
31357;BME280;60001;48.404;11.738;2023-04-26T01:59:15;96202.38;;;7.39;81.06
31357;BME280;60001;48.404;11.738;2023-04-26T02:00:45;96204.03;;;7.17;81.22
31357;BME280;60001;48.404;11.738;2023-04-26T02:02:17;96212.66;;;7.29;81.06
31357;BME280;60001;48.404;11.738;2023-04-26T02:03:49;96224.06;;;7.34;81.22
31357;BME280;60001;48.404;11.738;2023-04-26T02:05:21;96223.81;;;7.36;81.12
31357;BME280;60001;48.404;11.738;2023-04-26T02:06:53;96219.59;;;7.35;81.48
31357;BME280;60001;48.404;11.738;2023-04-26T02:08:25;96207.63;;;7.27;81.45
31357;BME280;60001;48.404;11.738;2023-04-26T02:09:57;96222.38;;;7.28;80.82
31357;BME280;60001;48.404;11.738;2023-04-26T02:11:29;96221.25;;;7.24;81.20
31357;BME280;60001;48.404;11.738;2023-04-26T02:13:00;96200.19;;;6.96;81.12
31357;BME280;60001;48.404;11.738;2023-04-26T02:14:31;96220.00;;;7.15;82.05
31357;BME280;60001;48.404;11.738;2023-04-26T02:16:04;96212.69;;;7.17;82.03
31357;BME280;60001;48.404;11.738;2023-04-26T02:17:37;96224.63;;;7.36;81.95
31357;BME280;60001;48.404;11.738;2023-04-26T02:19:09;96223.38;;;7.39;81.21
31357;BME280;60001;48.404;11.738;2023-04-26T02:20:41;96224.84;;;7.35;80.98
31357;BME280;60001;48.404;11.738;2023-04-26T02:22:12;96209.16;;;7.23;81.63
31357;BME280;60001;48.404;11.738;2023-04-26T02:23:45;96214.47;;;7.28;81.64
31357;BME280;60001;48.404;11.738;2023-04-26T02:25:16;96214.47;;;7.28;81.78
31357;BME280;60001;48.404;11.738;2023-04-26T02:26:48;96206.59;;;7.28;81.79
31357;BME280;60001;48.404;11.738;2023-04-26T02:28:19;96221.44;;;7.34;81.12
31357;BME280;60001;48.404;11.738;2023-04-26T02:29:51;96198.31;;;7.20;81.73
31357;BME280;60001;48.404;11.738;2023-04-26T02:31:22;96209.91;;;7.35;80.75
31357;BME280;60001;48.404;11.738;2023-04-26T02:32:54;96217.09;;;7.40;80.74
31357;BME280;60001;48.404;11.738;2023-04-26T02:34:25;96201.03;;;7.25;81.69
31357;BME280;60001;48.404;11.738;2023-04-26T02:35:56;96219.38;;;7.36;81.08
31357;BME280;60001;48.404;11.738;2023-04-26T02:37:28;96219.94;;;7.38;81.21
31357;BME280;60001;48.404;11.738;2023-04-26T02:39:02;96217.47;;;7.32;82.06
31357;BME280;60001;48.404;11.738;2023-04-26T02:40:33;96211.31;;;7.26;81.87
31357;BME280;60001;48.404;11.738;2023-04-26T02:42:07;96207.78;;;7.09;81.03
31357;BME280;60001;48.404;11.738;2023-04-26T02:43:39;96216.69;;;7.20;81.87
31357;BME280;60001;48.404;11.738;2023-04-26T02:45:11;96210.50;;;7.26;82.13
31357;BME280;60001;48.404;11.738;2023-04-26T02:46:43;96210.75;;;7.24;81.92
31357;BME280;60001;48.404;11.738;2023-04-26T02:48:15;96210.16;;;7.22;81.90
31357;BME280;60001;48.404;11.738;2023-04-26T02:49:47;96211.44;;;7.20;82.01
31357;BME280;60001;48.404;11.738;2023-04-26T02:51:18;96213.56;;;7.23;81.78
31357;BME280;60001;48.404;11.738;2023-04-26T02:52:49;96210.25;;;7.27;81.63
31357;BME280;60001;48.404;11.738;2023-04-26T02:54:22;96196.28;;;6.98;82.36
31357;BME280;60001;48.404;11.738;2023-04-26T02:55:54;96210.94;;;7.23;82.15
31357;BME280;60001;48.404;11.738;2023-04-26T02:57:25;96210.28;;;7.15;81.65
31357;BME280;60001;48.404;11.738;2023-04-26T02:58:57;96219.66;;;7.23;81.93
31357;BME280;60001;48.404;11.738;2023-04-26T03:00:29;96163.44;;;6.96;81.86
31357;BME280;60001;48.404;11.738;2023-04-26T03:02:00;96211.31;;;7.26;81.83
31357;BME280;60001;48.404;11.738;2023-04-26T03:03:32;96207.22;;;7.19;82.15
31357;BME280;60001;48.404;11.738;2023-04-26T03:05:03;96206.06;;;7.14;81.82
31357;BME280;60001;48.404;11.738;2023-04-26T03:06:35;96202.53;;;7.21;81.83
31357;BME280;60001;48.404;11.738;2023-04-26T03:08:06;96216.94;;;7.06;82.70
31357;BME280;60001;48.404;11.738;2023-04-26T03:09:39;96221.88;;;7.03;82.68
31357;BME280;60001;48.404;11.738;2023-04-26T03:11:11;96198.13;;;6.98;82.63
31357;BME280;60001;48.404;11.738;2023-04-26T03:12:43;96219.88;;;7.22;82.22
31357;BME280;60001;48.404;11.738;2023-04-26T03:14:15;96235.53;;;7.17;82.68
31357;BME280;60001;48.404;11.738;2023-04-26T03:15:47;96226.94;;;7.21;82.50
31357;BME280;60001;48.404;11.738;2023-04-26T03:17:19;96234.81;;;7.21;82.09
31357;BME280;60001;48.404;11.738;2023-04-26T03:18:51;96230.59;;;7.20;81.82
31357;BME280;60001;48.404;11.738;2023-04-26T03:20:23;96232.78;;;7.23;81.60
31357;BME280;60001;48.404;11.738;2023-04-26T03:21:55;96224.75;;;7.30;81.79
31357;BME280;60001;48.404;11.738;2023-04-26T03:23:27;96225.72;;;7.12;82.07
31357;BME280;60001;48.404;11.738;2023-04-26T03:25:00;96213.72;;;7.16;82.23
31357;BME280;60001;48.404;11.738;2023-04-26T03:26:31;96225.91;;;7.22;81.76
31357;BME280;60001;48.404;11.738;2023-04-26T03:28:04;96227.84;;;7.27;81.74
31357;BME280;60001;48.404;11.738;2023-04-26T03:29:34;96226.03;;;7.15;81.50
31357;BME280;60001;48.404;11.738;2023-04-26T03:31:06;96227.28;;;7.25;81.47
31357;BME280;60001;48.404;11.738;2023-04-26T03:32:38;96229.69;;;7.26;81.66
31357;BME280;60001;48.404;11.738;2023-04-26T03:34:10;96229.69;;;7.26;81.22
31357;BME280;60001;48.404;11.738;2023-04-26T03:35:42;96224.56;;;7.20;81.35
31357;BME280;60001;48.404;11.738;2023-04-26T03:37:14;96222.97;;;7.19;81.94
31357;BME280;60001;48.404;11.738;2023-04-26T03:38:46;96209.16;;;7.11;81.78
31357;BME280;60001;48.404;11.738;2023-04-26T03:40:20;96203.69;;;7.13;81.78
31357;BME280;60001;48.404;11.738;2023-04-26T03:41:52;96229.38;;;7.11;82.70
31357;BME280;60001;48.404;11.738;2023-04-26T03:43:24;96227.44;;;7.18;82.10
31357;BME280;60001;48.404;11.738;2023-04-26T03:44:57;96233.22;;;7.20;82.04
31357;BME280;60001;48.404;11.738;2023-04-26T03:46:27;96240.06;;;7.21;82.30
31357;BME280;60001;48.404;11.738;2023-04-26T03:47:59;96240.06;;;7.21;82.20
31357;BME280;60001;48.404;11.738;2023-04-26T03:49:31;96241.22;;;7.13;82.42
31357;BME280;60001;48.404;11.738;2023-04-26T03:51:03;96223.66;;;7.14;81.59
31357;BME280;60001;48.404;11.738;2023-04-26T03:52:34;96229.00;;;7.19;81.53
31357;BME280;60001;48.404;11.738;2023-04-26T03:54:06;96212.94;;;7.04;82.13
31357;BME280;60001;48.404;11.738;2023-04-26T03:55:39;96222.19;;;7.06;82.05
31357;BME280;60001;48.404;11.738;2023-04-26T03:57:10;96230.63;;;7.08;82.91
31357;BME280;60001;48.404;11.738;2023-04-26T03:58:42;96233.03;;;7.10;82.13
31357;BME280;60001;48.404;11.738;2023-04-26T04:00:14;96238.63;;;7.02;82.50
31357;BME280;60001;48.404;11.738;2023-04-26T04:01:46;96205.56;;;6.77;83.25
31357;BME280;60001;48.404;11.738;2023-04-26T04:03:20;96241.25;;;7.02;83.28
31357;BME280;60001;48.404;11.738;2023-04-26T04:04:52;96223.78;;;7.07;82.28
31357;BME280;60001;48.404;11.738;2023-04-26T04:06:23;96215.00;;;7.02;82.38
31357;BME280;60001;48.404;11.738;2023-04-26T04:07:55;96241.72;;;7.10;82.82
31357;BME280;60001;48.404;11.738;2023-04-26T04:09:26;96243.75;;;7.08;82.20
31357;BME280;60001;48.404;11.738;2023-04-26T04:11:00;96218.19;;;7.04;82.47
31357;BME280;60001;48.404;11.738;2023-04-26T04:12:31;96240.44;;;7.13;81.99
31357;BME280;60001;48.404;11.738;2023-04-26T04:14:03;96249.91;;;7.14;82.59
31357;BME280;60001;48.404;11.738;2023-04-26T04:15:36;96191.41;;;6.78;82.05
31357;BME280;60001;48.404;11.738;2023-04-26T04:17:08;96245.34;;;7.21;81.91
31357;BME280;60001;48.404;11.738;2023-04-26T04:18:40;96250.25;;;7.18;82.41
31357;BME280;60001;48.404;11.738;2023-04-26T04:20:12;96241.78;;;7.15;82.67
31357;BME280;60001;48.404;11.738;2023-04-26T04:21:44;96231.56;;;7.02;82.84
31357;BME280;60001;48.404;11.738;2023-04-26T04:23:16;96251.28;;;7.17;83.06
31357;BME280;60001;48.404;11.738;2023-04-26T04:24:47;96252.78;;;7.12;82.62
31357;BME280;60001;48.404;11.738;2023-04-26T04:26:21;96213.53;;;6.94;82.33
31357;BME280;60001;48.404;11.738;2023-04-26T04:27:52;96253.00;;;7.11;82.35
31357;BME280;60001;48.404;11.738;2023-04-26T04:29:23;96264.19;;;7.18;82.62
31357;BME280;60001;48.404;11.738;2023-04-26T04:30:56;96267.38;;;7.20;82.43
31357;BME280;60001;48.404;11.738;2023-04-26T04:32:28;96261.06;;;7.33;81.22
31357;BME280;60001;48.404;11.738;2023-04-26T04:34:02;96264.63;;;7.15;82.22
31357;BME280;60001;48.404;11.738;2023-04-26T04:35:34;96228.38;;;6.89;82.69
31357;BME280;60001;48.404;11.738;2023-04-26T04:37:05;96269.00;;;7.09;82.13
31357;BME280;60001;48.404;11.738;2023-04-26T04:38:38;96257.47;;;7.10;82.11
31357;BME280;60001;48.404;11.738;2023-04-26T04:40:10;96261.81;;;7.17;82.31
31357;BME280;60001;48.404;11.738;2023-04-26T04:41:44;96254.91;;;7.15;82.88
31357;BME280;60001;48.404;11.738;2023-04-26T04:43:17;96242.16;;;7.07;82.79
31357;BME280;60001;48.404;11.738;2023-04-26T04:44:53;96263.94;;;7.20;82.72
31357;BME280;60001;48.404;11.738;2023-04-26T04:46:25;96258.34;;;7.16;83.26
31357;BME280;60001;48.404;11.738;2023-04-26T04:47:57;96268.28;;;7.14;83.10
31357;BME280;60001;48.404;11.738;2023-04-26T04:49:29;96267.03;;;7.17;82.96
31357;BME280;60001;48.404;11.738;2023-04-26T04:51:00;96281.31;;;7.09;82.83
31357;BME280;60001;48.404;11.738;2023-04-26T04:52:32;96276.28;;;7.07;82.67
31357;BME280;60001;48.404;11.738;2023-04-26T04:54:11;96272.19;;;7.00;83.35
31357;BME280;60001;48.404;11.738;2023-04-26T04:55:43;96277.44;;;7.00;84.24
31357;BME280;60001;48.404;11.738;2023-04-26T04:57:17;96267.72;;;7.00;84.34
31357;BME280;60001;48.404;11.738;2023-04-26T04:58:49;96276.03;;;7.21;82.93
31357;BME280;60001;48.404;11.738;2023-04-26T05:00:22;96286.66;;;7.26;82.54
31357;BME280;60001;48.404;11.738;2023-04-26T05:01:53;96279.03;;;7.24;82.79
31357;BME280;60001;48.404;11.738;2023-04-26T05:03:25;96287.94;;;7.23;82.81
31357;BME280;60001;48.404;11.738;2023-04-26T05:04:57;96286.06;;;7.35;81.72
31357;BME280;60001;48.404;11.738;2023-04-26T05:06:30;96289.72;;;7.23;82.39
31357;BME280;60001;48.404;11.738;2023-04-26T05:08:03;96292.13;;;7.36;82.05
31357;BME280;60001;48.404;11.738;2023-04-26T05:09:36;96295.34;;;7.38;81.90
31357;BME280;60001;48.404;11.738;2023-04-26T05:11:08;96291.00;;;7.20;82.02
31357;BME280;60001;48.404;11.738;2023-04-26T05:12:41;96294.63;;;7.42;81.44
31357;BME280;60001;48.404;11.738;2023-04-26T05:14:13;96297.50;;;7.41;81.62
31357;BME280;60001;48.404;11.738;2023-04-26T05:15:45;96291.31;;;7.47;81.30
31357;BME280;60001;48.404;11.738;2023-04-26T05:17:17;96304.22;;;7.49;82.10
31357;BME280;60001;48.404;11.738;2023-04-26T05:18:48;96285.63;;;7.38;82.07
31357;BME280;60001;48.404;11.738;2023-04-26T05:20:20;96299.69;;;7.32;81.91
31357;BME280;60001;48.404;11.738;2023-04-26T05:21:52;96294.88;;;7.29;82.82
31357;BME280;60001;48.404;11.738;2023-04-26T05:23:24;96311.53;;;7.47;82.99
31357;BME280;60001;48.404;11.738;2023-04-26T05:24:55;96306.16;;;7.53;82.03
31357;BME280;60001;48.404;11.738;2023-04-26T05:26:27;96296.31;;;7.60;81.86
31357;BME280;60001;48.404;11.738;2023-04-26T05:28:00;96304.75;;;7.62;82.18
31357;BME280;60001;48.404;11.738;2023-04-26T05:29:32;96276.91;;;7.50;81.06
31357;BME280;60001;48.404;11.738;2023-04-26T05:31:03;96286.88;;;7.36;80.80
31357;BME280;60001;48.404;11.738;2023-04-26T05:32:35;96297.16;;;7.37;81.33
31357;BME280;60001;48.404;11.738;2023-04-26T05:34:07;96304.81;;;7.39;82.08
31357;BME280;60001;48.404;11.738;2023-04-26T05:35:38;96306.94;;;7.54;81.46
31357;BME280;60001;48.404;11.738;2023-04-26T05:37:10;96306.16;;;7.41;82.20
31357;BME280;60001;48.404;11.738;2023-04-26T05:38:42;96315.88;;;7.41;81.51
31357;BME280;60001;48.404;11.738;2023-04-26T05:40:14;96307.00;;;7.30;81.79
31357;BME280;60001;48.404;11.738;2023-04-26T05:41:46;96314.84;;;7.42;81.90
31357;BME280;60001;48.404;11.738;2023-04-26T05:43:22;96285.50;;;7.33;81.79
31357;BME280;60001;48.404;11.738;2023-04-26T05:44:56;96263.25;;;7.24;81.32
31357;BME280;60001;48.404;11.738;2023-04-26T05:46:28;96306.75;;;7.32;81.68
31357;BME280;60001;48.404;11.738;2023-04-26T05:48:00;96310.19;;;7.44;81.38
31357;BME280;60001;48.404;11.738;2023-04-26T05:49:32;96320.28;;;7.64;81.63
31357;BME280;60001;48.404;11.738;2023-04-26T05:51:04;96318.81;;;7.68;82.10
31357;BME280;60001;48.404;11.738;2023-04-26T05:52:35;96322.69;;;7.65;81.44
31357;BME280;60001;48.404;11.738;2023-04-26T05:54:07;96322.09;;;7.75;80.26
31357;BME280;60001;48.404;11.738;2023-04-26T05:55:40;96323.69;;;7.76;79.88
31357;BME280;60001;48.404;11.738;2023-04-26T05:57:12;96325.09;;;7.67;79.44
31357;BME280;60001;48.404;11.738;2023-04-26T05:58:45;96330.59;;;7.65;79.26
31357;BME280;60001;48.404;11.738;2023-04-26T06:00:18;96325.19;;;7.72;79.92
31357;BME280;60001;48.404;11.738;2023-04-26T06:01:53;96320.75;;;7.73;81.33
31357;BME280;60001;48.404;11.738;2023-04-26T06:03:25;96306.22;;;7.70;81.86
31357;BME280;60001;48.404;11.738;2023-04-26T06:04:57;96321.72;;;7.83;82.78
31357;BME280;60001;48.404;11.738;2023-04-26T06:06:29;96324.84;;;7.80;81.74
31357;BME280;60001;48.404;11.738;2023-04-26T06:08:01;96319.19;;;7.88;81.92
31357;BME280;60001;48.404;11.738;2023-04-26T06:09:33;96310.03;;;7.91;82.10
31357;BME280;60001;48.404;11.738;2023-04-26T06:11:05;96329.81;;;7.93;79.33
31357;BME280;60001;48.404;11.738;2023-04-26T06:12:37;96324.38;;;7.72;79.28
31357;BME280;60001;48.404;11.738;2023-04-26T06:14:10;96333.38;;;7.87;80.77
31357;BME280;60001;48.404;11.738;2023-04-26T06:15:42;96312.53;;;7.97;80.00
31357;BME280;60001;48.404;11.738;2023-04-26T06:17:13;96321.66;;;8.07;79.19
31357;BME280;60001;48.404;11.738;2023-04-26T06:18:45;96316.53;;;8.29;77.90
31357;BME280;60001;48.404;11.738;2023-04-26T06:20:17;96312.50;;;8.38;77.33
31357;BME280;60001;48.404;11.738;2023-04-26T06:21:49;96325.50;;;8.44;76.85
31357;BME280;60001;48.404;11.738;2023-04-26T06:23:21;96323.78;;;8.67;77.64
31357;BME280;60001;48.404;11.738;2023-04-26T06:24:53;96330.47;;;8.74;76.00
31357;BME280;60001;48.404;11.738;2023-04-26T06:26:25;96325.22;;;8.91;76.22
31357;BME280;60001;48.404;11.738;2023-04-26T06:27:56;96324.66;;;8.89;74.32
31357;BME280;60001;48.404;11.738;2023-04-26T06:29:31;96321.63;;;8.97;72.56
31357;BME280;60001;48.404;11.738;2023-04-26T06:31:03;96322.19;;;8.99;71.24
31357;BME280;60001;48.404;11.738;2023-04-26T06:32:37;96322.09;;;8.94;70.19
31357;BME280;60001;48.404;11.738;2023-04-26T06:34:09;96318.91;;;8.92;70.88
31357;BME280;60001;48.404;11.738;2023-04-26T06:35:41;96327.22;;;9.01;68.22
31357;BME280;60001;48.404;11.738;2023-04-26T06:37:13;96336.28;;;9.10;68.50
31357;BME280;60001;48.404;11.738;2023-04-26T06:38:45;96336.91;;;9.17;68.88
31357;BME280;60001;48.404;11.738;2023-04-26T06:40:17;96339.00;;;9.32;68.86
31357;BME280;60001;48.404;11.738;2023-04-26T06:41:49;96336.31;;;9.49;68.94
31357;BME280;60001;48.404;11.738;2023-04-26T06:43:21;96331.91;;;9.54;66.59
31357;BME280;60001;48.404;11.738;2023-04-26T06:44:54;96335.66;;;9.20;60.15
31357;BME280;60001;48.404;11.738;2023-04-26T06:46:26;96336.53;;;9.09;62.22
31357;BME280;60001;48.404;11.738;2023-04-26T06:47:58;96338.13;;;9.10;63.37
31357;BME280;60001;48.404;11.738;2023-04-26T06:49:31;96315.84;;;9.17;63.55
31357;BME280;60001;48.404;11.738;2023-04-26T06:51:06;96339.81;;;9.16;63.96
31357;BME280;60001;48.404;11.738;2023-04-26T06:52:38;96345.34;;;8.97;62.73
31357;BME280;60001;48.404;11.738;2023-04-26T06:54:11;96340.06;;;8.97;63.69
31357;BME280;60001;48.404;11.738;2023-04-26T06:55:43;96341.34;;;9.12;64.37
31357;BME280;60001;48.404;11.738;2023-04-26T06:57:15;96345.06;;;9.16;63.51
31357;BME280;60001;48.404;11.738;2023-04-26T06:58:58;96346.19;;;9.03;60.75
31357;BME280;60001;48.404;11.738;2023-04-26T07:00:32;96349.78;;;9.14;61.54
31357;BME280;60001;48.404;11.738;2023-04-26T07:02:03;96349.53;;;9.32;61.82
31357;BME280;60001;48.404;11.738;2023-04-26T07:03:35;96352.38;;;9.47;63.24
31357;BME280;60001;48.404;11.738;2023-04-26T07:05:11;96349.69;;;9.64;62.64
31357;BME280;60001;48.404;11.738;2023-04-26T07:06:44;96356.19;;;9.56;60.75
31357;BME280;60001;48.404;11.738;2023-04-26T07:08:16;96357.41;;;9.49;61.91
31357;BME280;60001;48.404;11.738;2023-04-26T07:09:48;96349.09;;;9.57;60.91
31357;BME280;60001;48.404;11.738;2023-04-26T07:11:20;96348.28;;;9.56;61.18
31357;BME280;60001;48.404;11.738;2023-04-26T07:12:52;96339.47;;;9.68;61.69
31357;BME280;60001;48.404;11.738;2023-04-26T07:14:24;96349.34;;;9.77;61.27
31357;BME280;60001;48.404;11.738;2023-04-26T07:15:57;96354.31;;;9.74;59.98
31357;BME280;60001;48.404;11.738;2023-04-26T07:17:29;96351.47;;;9.80;56.81
31357;BME280;60001;48.404;11.738;2023-04-26T07:19:01;96352.97;;;9.71;58.45
31357;BME280;60001;48.404;11.738;2023-04-26T07:20:33;96347.75;;;9.54;58.05
31357;BME280;60001;48.404;11.738;2023-04-26T07:22:05;96345.66;;;9.56;57.12
31357;BME280;60001;48.404;11.738;2023-04-26T07:23:37;96348.84;;;9.58;58.72
31357;BME280;60001;48.404;11.738;2023-04-26T07:25:08;96350.75;;;9.63;58.40
31357;BME280;60001;48.404;11.738;2023-04-26T07:26:40;96328.97;;;9.51;57.24
31357;BME280;60001;48.404;11.738;2023-04-26T07:28:12;96352.84;;;9.61;57.98
31357;BME280;60001;48.404;11.738;2023-04-26T07:29:44;96354.94;;;9.81;58.10
31357;BME280;60001;48.404;11.738;2023-04-26T07:31:17;96325.44;;;9.62;56.82
31357;BME280;60001;48.404;11.738;2023-04-26T07:32:49;96349.06;;;9.96;55.25
31357;BME280;60001;48.404;11.738;2023-04-26T07:34:22;96355.91;;;9.97;54.05
31357;BME280;60001;48.404;11.738;2023-04-26T07:35:55;96354.97;;;10.08;53.33
31357;BME280;60001;48.404;11.738;2023-04-26T07:37:27;96345.97;;;10.04;53.81
31357;BME280;60001;48.404;11.738;2023-04-26T07:38:59;96349.22;;;10.11;56.00
31357;BME280;60001;48.404;11.738;2023-04-26T07:40:31;96351.63;;;9.91;55.48
31357;BME280;60001;48.404;11.738;2023-04-26T07:42:03;96344.00;;;9.94;56.05
31357;BME280;60001;48.404;11.738;2023-04-26T07:43:35;96348.13;;;9.85;57.58
31357;BME280;60001;48.404;11.738;2023-04-26T07:45:08;96354.50;;;9.89;56.67
31357;BME280;60001;48.404;11.738;2023-04-26T07:46:41;96347.22;;;9.96;56.95
31357;BME280;60001;48.404;11.738;2023-04-26T07:48:13;96351.88;;;9.67;56.01
31357;BME280;60001;48.404;11.738;2023-04-26T07:49:45;96331.75;;;9.61;56.18
31357;BME280;60001;48.404;11.738;2023-04-26T07:51:17;96345.47;;;9.63;57.23
31357;BME280;60001;48.404;11.738;2023-04-26T07:52:50;96332.91;;;9.48;57.11
31357;BME280;60001;48.404;11.738;2023-04-26T07:54:22;96332.41;;;9.73;57.79
31357;BME280;60001;48.404;11.738;2023-04-26T07:55:53;96335.09;;;10.00;56.60
31357;BME280;60001;48.404;11.738;2023-04-26T07:57:28;96294.69;;;9.73;56.92
31357;BME280;60001;48.404;11.738;2023-04-26T07:58:59;96336.16;;;9.99;56.04
31357;BME280;60001;48.404;11.738;2023-04-26T08:00:33;96323.19;;;10.20;55.91
31357;BME280;60001;48.404;11.738;2023-04-26T08:02:09;96345.13;;;10.74;55.44
31357;BME280;60001;48.404;11.738;2023-04-26T08:03:41;96347.94;;;10.94;54.51
31357;BME280;60001;48.404;11.738;2023-04-26T08:05:14;96342.84;;;10.88;54.11
31357;BME280;60001;48.404;11.738;2023-04-26T08:06:46;96329.34;;;10.52;54.51
31357;BME280;60001;48.404;11.738;2023-04-26T08:08:18;96336.16;;;10.48;54.85